sensor_id;sensor_type;location;lat;lon;timestamp;pressure;altitude;pressure_sealevel;temperature;humidity
6423;BME280;3244;42.708;23.288;2022-07-03T00:02:19;95456.72;;;24.39;68.54
6423;BME280;3244;42.708;23.288;2022-07-03T00:04:46;95471.72;;;24.56;68.16
6423;BME280;3244;42.708;23.288;2022-07-03T00:07:13;95472.09;;;24.52;68.03
6423;BME280;3244;42.708;23.288;2022-07-03T00:09:40;95469.00;;;24.58;67.80
6423;BME280;3244;42.708;23.288;2022-07-03T00:12:07;95472.75;;;24.65;67.56
6423;BME280;3244;42.708;23.288;2022-07-03T00:14:35;95462.13;;;24.77;67.54
6423;BME280;3244;42.708;23.288;2022-07-03T00:17:02;95460.31;;;24.89;66.81
6423;BME280;3244;42.708;23.288;2022-07-03T00:19:29;95454.72;;;24.94;67.01
6423;BME280;3244;42.708;23.288;2022-07-03T00:21:58;95448.81;;;24.92;66.73
6423;BME280;3244;42.708;23.288;2022-07-03T00:24:32;95462.00;;;24.79;67.21
6423;BME280;3244;42.708;23.288;2022-07-03T00:27:01;95465.44;;;24.38;69.07
6423;BME280;3244;42.708;23.288;2022-07-03T00:29:31;95463.00;;;24.25;69.79
6423;BME280;3244;42.708;23.288;2022-07-03T00:32:03;95454.19;;;24.49;68.50
6423;BME280;3244;42.708;23.288;2022-07-03T00:34:32;95448.84;;;24.50;68.99
6423;BME280;3244;42.708;23.288;2022-07-03T00:37:00;95447.06;;;24.51;68.33
6423;BME280;3244;42.708;23.288;2022-07-03T00:39:27;95440.38;;;24.69;68.14
6423;BME280;3244;42.708;23.288;2022-07-03T00:42:00;95445.22;;;24.83;67.35
6423;BME280;3244;42.708;23.288;2022-07-03T00:44:28;95445.22;;;24.83;67.53
6423;BME280;3244;42.708;23.288;2022-07-03T00:46:55;95437.78;;;24.79;67.18
6423;BME280;3244;42.708;23.288;2022-07-03T00:49:24;95453.34;;;24.69;67.32
6423;BME280;3244;42.708;23.288;2022-07-03T00:51:52;95443.47;;;24.63;68.13
6423;BME280;3244;42.708;23.288;2022-07-03T00:54:21;95448.09;;;24.59;67.62
6423;BME280;3244;42.708;23.288;2022-07-03T00:56:50;95442.38;;;24.65;67.42
6423;BME280;3244;42.708;23.288;2022-07-03T00:59:18;95429.44;;;24.33;68.91
6423;BME280;3244;42.708;23.288;2022-07-03T01:01:45;95429.00;;;24.28;68.85
6423;BME280;3244;42.708;23.288;2022-07-03T01:04:21;95424.66;;;24.50;68.10
6423;BME280;3244;42.708;23.288;2022-07-03T01:07:00;95416.84;;;24.50;68.26
6423;BME280;3244;42.708;23.288;2022-07-03T01:09:36;95419.09;;;24.22;68.87
6423;BME280;3244;42.708;23.288;2022-07-03T01:12:10;95422.56;;;24.44;67.98
6423;BME280;3244;42.708;23.288;2022-07-03T01:14:50;95421.28;;;24.59;67.44
6423;BME280;3244;42.708;23.288;2022-07-03T01:17:25;95417.91;;;24.68;67.24
6423;BME280;3244;42.708;23.288;2022-07-03T01:19:57;95416.03;;;24.70;67.08
6423;BME280;3244;42.708;23.288;2022-07-03T01:22:30;95416.97;;;24.69;67.17
6423;BME280;3244;42.708;23.288;2022-07-03T01:25:23;95415.91;;;24.71;66.79
6423;BME280;3244;42.708;23.288;2022-07-03T01:28:07;95415.22;;;24.79;66.77
6423;BME280;3244;42.708;23.288;2022-07-03T01:30:36;95411.78;;;24.48;67.83
6423;BME280;3244;42.708;23.288;2022-07-03T01:33:06;95417.97;;;24.04;69.51
6423;BME280;3244;42.708;23.288;2022-07-03T01:35:35;95409.25;;;24.05;69.49
6423;BME280;3244;42.708;23.288;2022-07-03T01:38:04;95423.47;;;24.22;68.75
6423;BME280;3244;42.708;23.288;2022-07-03T01:40:33;95413.28;;;24.51;68.01
6423;BME280;3244;42.708;23.288;2022-07-03T01:43:05;95429.50;;;24.64;67.60
6423;BME280;3244;42.708;23.288;2022-07-03T01:45:36;95422.16;;;24.69;67.09
6423;BME280;3244;42.708;23.288;2022-07-03T01:48:05;95429.38;;;24.65;67.36
6423;BME280;3244;42.708;23.288;2022-07-03T01:50:33;95422.66;;;24.63;66.81
6423;BME280;3244;42.708;23.288;2022-07-03T01:53:01;95420.41;;;24.49;67.60
6423;BME280;3244;42.708;23.288;2022-07-03T01:55:32;95416.78;;;23.76;70.62
6423;BME280;3244;42.708;23.288;2022-07-03T01:57:59;95420.47;;;23.51;71.07
6423;BME280;3244;42.708;23.288;2022-07-03T02:00:29;95420.91;;;23.79;70.37
6423;BME280;3244;42.708;23.288;2022-07-03T02:02:58;95425.78;;;24.04;69.80
6423;BME280;3244;42.708;23.288;2022-07-03T02:05:38;95422.88;;;24.18;68.58
6423;BME280;3244;42.708;23.288;2022-07-03T02:08:26;95425.28;;;24.42;67.76
6423;BME280;3244;42.708;23.288;2022-07-03T02:11:07;95423.63;;;24.41;67.80
6423;BME280;3244;42.708;23.288;2022-07-03T02:13:38;95421.97;;;24.08;68.94
6423;BME280;3244;42.708;23.288;2022-07-03T02:16:08;95425.59;;;23.85;69.35
6423;BME280;3244;42.708;23.288;2022-07-03T02:18:36;95424.72;;;23.74;69.78
6423;BME280;3244;42.708;23.288;2022-07-03T02:21:10;95418.31;;;23.79;69.84
6423;BME280;3244;42.708;23.288;2022-07-03T02:23:44;95423.88;;;24.06;68.74
6423;BME280;3244;42.708;23.288;2022-07-03T02:26:16;95421.56;;;24.24;67.84
6423;BME280;3244;42.708;23.288;2022-07-03T02:28:57;95426.69;;;24.14;68.59
6423;BME280;3244;42.708;23.288;2022-07-03T02:31:27;95420.25;;;24.29;67.62
6423;BME280;3244;42.708;23.288;2022-07-03T02:33:59;95423.00;;;23.96;68.73
6423;BME280;3244;42.708;23.288;2022-07-03T02:36:28;95434.25;;;24.06;68.43
6423;BME280;3244;42.708;23.288;2022-07-03T02:38:56;95425.38;;;23.88;69.00
6423;BME280;3244;42.708;23.288;2022-07-03T02:41:27;95429.13;;;23.95;69.29
6423;BME280;3244;42.708;23.288;2022-07-03T02:43:58;95430.97;;;24.04;68.83
6423;BME280;3244;42.708;23.288;2022-07-03T02:46:37;95430.91;;;23.94;68.85
6423;BME280;3244;42.708;23.288;2022-07-03T02:49:22;95422.41;;;23.16;71.64
6423;BME280;3244;42.708;23.288;2022-07-03T02:52:04;95426.66;;;22.83;73.32
6423;BME280;3244;42.708;23.288;2022-07-03T02:54:46;95432.41;;;23.31;71.43
6423;BME280;3244;42.708;23.288;2022-07-03T02:57:16;95444.44;;;23.55;70.69
6423;BME280;3244;42.708;23.288;2022-07-03T02:59:52;95432.22;;;23.89;69.02
6423;BME280;3244;42.708;23.288;2022-07-03T03:05:16;95444.66;;;24.06;68.14
6423;BME280;3244;42.708;23.288;2022-07-03T03:07:56;95447.25;;;24.06;68.07
6423;BME280;3244;42.708;23.288;2022-07-03T03:10:26;95443.66;;;24.18;67.61
6423;BME280;3244;42.708;23.288;2022-07-03T03:13:11;95453.22;;;24.18;67.68
6423;BME280;3244;42.708;23.288;2022-07-03T03:15:39;95450.44;;;24.41;66.53
6423;BME280;3244;42.708;23.288;2022-07-03T03:18:12;95451.75;;;24.36;66.61
6423;BME280;3244;42.708;23.288;2022-07-03T03:20:46;95454.72;;;24.31;66.57
6423;BME280;3244;42.708;23.288;2022-07-03T03:23:19;95447.38;;;24.36;66.63
6423;BME280;3244;42.708;23.288;2022-07-03T03:25:50;95458.59;;;24.37;66.79
6423;BME280;3244;42.708;23.288;2022-07-03T03:28:17;95464.00;;;24.24;66.80
6423;BME280;3244;42.708;23.288;2022-07-03T03:30:44;95458.97;;;24.32;66.64
6423;BME280;3244;42.708;23.288;2022-07-03T03:33:13;95453.84;;;24.63;65.49
6423;BME280;3244;42.708;23.288;2022-07-03T03:35:40;95455.84;;;25.22;63.61
6423;BME280;3244;42.708;23.288;2022-07-03T03:38:07;95460.97;;;25.83;62.11
6423;BME280;3244;42.708;23.288;2022-07-03T03:40:34;95450.06;;;26.47;59.80
6423;BME280;3244;42.708;23.288;2022-07-03T03:43:02;95445.69;;;27.13;57.68
6423;BME280;3244;42.708;23.288;2022-07-03T03:45:29;95443.28;;;27.66;56.48
6423;BME280;3244;42.708;23.288;2022-07-03T03:47:56;95445.84;;;28.11;54.45
6423;BME280;3244;42.708;23.288;2022-07-03T03:50:25;95454.44;;;28.57;53.07
6423;BME280;3244;42.708;23.288;2022-07-03T03:52:51;95450.81;;;28.94;52.41
6423;BME280;3244;42.708;23.288;2022-07-03T03:55:18;95460.25;;;29.47;50.55
6423;BME280;3244;42.708;23.288;2022-07-03T03:57:45;95457.31;;;29.92;49.60
6423;BME280;3244;42.708;23.288;2022-07-03T04:00:13;95462.44;;;30.09;49.37
6423;BME280;3244;42.708;23.288;2022-07-03T04:02:40;95462.00;;;30.55;47.91
6423;BME280;3244;42.708;23.288;2022-07-03T04:05:07;95449.84;;;31.02;47.04
6423;BME280;3244;42.708;23.288;2022-07-03T04:07:35;95453.19;;;31.43;45.90
6423;BME280;3244;42.708;23.288;2022-07-03T04:10:02;95450.50;;;31.68;44.91
6423;BME280;3244;42.708;23.288;2022-07-03T04:12:29;95455.78;;;31.52;45.12
6423;BME280;3244;42.708;23.288;2022-07-03T04:14:57;95453.16;;;30.80;46.82
6423;BME280;3244;42.708;23.288;2022-07-03T04:17:24;95451.19;;;30.17;48.50
6423;BME280;3244;42.708;23.288;2022-07-03T04:19:51;95445.13;;;29.66;49.05
6423;BME280;3244;42.708;23.288;2022-07-03T04:22:18;95443.66;;;29.04;50.98
6423;BME280;3244;42.708;23.288;2022-07-03T04:24:46;95439.66;;;28.30;52.42
6423;BME280;3244;42.708;23.288;2022-07-03T04:27:13;95444.28;;;28.01;53.75
6423;BME280;3244;42.708;23.288;2022-07-03T04:29:40;95441.09;;;27.25;55.54
6423;BME280;3244;42.708;23.288;2022-07-03T04:32:07;95438.63;;;27.23;55.95
6423;BME280;3244;42.708;23.288;2022-07-03T04:34:34;95444.75;;;27.04;56.48
6423;BME280;3244;42.708;23.288;2022-07-03T04:37:01;95442.44;;;27.29;56.28
6423;BME280;3244;42.708;23.288;2022-07-03T04:39:28;95444.34;;;27.36;56.08
6423;BME280;3244;42.708;23.288;2022-07-03T04:41:56;95445.94;;;27.47;56.15
6423;BME280;3244;42.708;23.288;2022-07-03T04:44:23;95440.81;;;27.65;55.53
6423;BME280;3244;42.708;23.288;2022-07-03T04:46:49;95454.81;;;27.91;54.79
6423;BME280;3244;42.708;23.288;2022-07-03T04:49:16;95454.88;;;28.53;53.60
6423;BME280;3244;42.708;23.288;2022-07-03T04:51:43;95448.06;;;29.03;51.51
6423;BME280;3244;42.708;23.288;2022-07-03T04:54:10;95446.84;;;29.16;50.63
6423;BME280;3244;42.708;23.288;2022-07-03T04:56:36;95448.56;;;29.75;49.49
6423;BME280;3244;42.708;23.288;2022-07-03T04:59:04;95439.22;;;30.79;47.37
6423;BME280;3244;42.708;23.288;2022-07-03T05:01:31;95439.59;;;31.40;45.96
6423;BME280;3244;42.708;23.288;2022-07-03T05:03:58;95439.66;;;31.07;46.50
6423;BME280;3244;42.708;23.288;2022-07-03T05:06:25;95444.34;;;30.65;47.33
6423;BME280;3244;42.708;23.288;2022-07-03T05:08:51;95445.22;;;29.99;49.30
6423;BME280;3244;42.708;23.288;2022-07-03T05:11:18;95440.53;;;29.60;49.95
6423;BME280;3244;42.708;23.288;2022-07-03T05:13:45;95456.06;;;29.28;51.47
6423;BME280;3244;42.708;23.288;2022-07-03T05:16:13;95443.97;;;29.35;51.29
6423;BME280;3244;42.708;23.288;2022-07-03T05:18:40;95448.19;;;29.54;50.98
6423;BME280;3244;42.708;23.288;2022-07-03T05:21:07;95447.88;;;30.23;49.10
6423;BME280;3244;42.708;23.288;2022-07-03T05:23:33;95439.88;;;31.53;46.19
6423;BME280;3244;42.708;23.288;2022-07-03T05:26:00;95441.63;;;33.06;42.36
6423;BME280;3244;42.708;23.288;2022-07-03T05:28:27;95437.28;;;34.72;39.68
6423;BME280;3244;42.708;23.288;2022-07-03T05:30:54;95436.19;;;35.85;36.68
6423;BME280;3244;42.708;23.288;2022-07-03T05:33:22;95436.41;;;36.84;35.37
6423;BME280;3244;42.708;23.288;2022-07-03T05:35:48;95438.13;;;37.56;33.72
6423;BME280;3244;42.708;23.288;2022-07-03T05:38:15;95441.19;;;37.53;34.01
6423;BME280;3244;42.708;23.288;2022-07-03T05:41:03;95444.91;;;37.32;33.89
6423;BME280;3244;42.708;23.288;2022-07-03T05:43:30;95447.22;;;37.79;33.40
6423;BME280;3244;42.708;23.288;2022-07-03T05:45:57;95441.84;;;37.93;33.01
6423;BME280;3244;42.708;23.288;2022-07-03T05:48:25;95448.75;;;38.07;32.50
6423;BME280;3244;42.708;23.288;2022-07-03T05:50:52;95450.41;;;37.95;32.58
6423;BME280;3244;42.708;23.288;2022-07-03T05:53:19;95452.00;;;38.09;32.33
6423;BME280;3244;42.708;23.288;2022-07-03T05:55:45;95452.34;;;38.19;32.35
6423;BME280;3244;42.708;23.288;2022-07-03T05:58:12;95452.34;;;37.74;33.04
6423;BME280;3244;42.708;23.288;2022-07-03T06:00:39;95449.00;;;36.88;34.45
6423;BME280;3244;42.708;23.288;2022-07-03T06:03:06;95446.44;;;36.14;35.77
6423;BME280;3244;42.708;23.288;2022-07-03T06:05:34;95447.53;;;36.26;35.88
6423;BME280;3244;42.708;23.288;2022-07-03T06:08:01;95440.06;;;36.83;34.58
6423;BME280;3244;42.708;23.288;2022-07-03T06:10:28;95442.88;;;36.68;34.79
6423;BME280;3244;42.708;23.288;2022-07-03T06:12:55;95438.72;;;36.12;36.01
6423;BME280;3244;42.708;23.288;2022-07-03T06:15:22;95448.06;;;36.02;35.97
6423;BME280;3244;42.708;23.288;2022-07-03T06:17:49;95453.94;;;35.56;37.06
6423;BME280;3244;42.708;23.288;2022-07-03T06:20:16;95447.00;;;35.21;37.79
6423;BME280;3244;42.708;23.288;2022-07-03T06:22:44;95452.97;;;34.31;39.21
6423;BME280;3244;42.708;23.288;2022-07-03T06:25:11;95453.72;;;33.89;40.08
6423;BME280;3244;42.708;23.288;2022-07-03T06:27:38;95454.16;;;33.92;40.55
6423;BME280;3244;42.708;23.288;2022-07-03T06:30:06;95453.38;;;33.62;41.19
6423;BME280;3244;42.708;23.288;2022-07-03T06:32:33;95450.63;;;33.85;40.37
6423;BME280;3244;42.708;23.288;2022-07-03T06:35:00;95449.13;;;34.12;40.04
6423;BME280;3244;42.708;23.288;2022-07-03T06:37:27;95449.13;;;34.12;39.82
6423;BME280;3244;42.708;23.288;2022-07-03T06:39:55;95452.97;;;33.21;41.36
6423;BME280;3244;42.708;23.288;2022-07-03T06:42:22;95452.78;;;32.70;42.83
6423;BME280;3244;42.708;23.288;2022-07-03T06:44:48;95449.66;;;32.52;42.71
6423;BME280;3244;42.708;23.288;2022-07-03T06:47:15;95445.22;;;32.53;43.11
6423;BME280;3244;42.708;23.288;2022-07-03T06:49:42;95443.47;;;31.52;44.58
6423;BME280;3244;42.708;23.288;2022-07-03T06:52:09;95443.69;;;31.42;45.11
6423;BME280;3244;42.708;23.288;2022-07-03T06:54:36;95444.72;;;31.72;45.10
6423;BME280;3244;42.708;23.288;2022-07-03T06:57:08;95449.88;;;32.20;43.94
6423;BME280;3244;42.708;23.288;2022-07-03T06:59:34;95450.91;;;31.88;44.33
6423;BME280;3244;42.708;23.288;2022-07-03T07:02:01;95444.56;;;31.19;45.57
6423;BME280;3244;42.708;23.288;2022-07-03T07:04:28;95441.03;;;30.71;46.13
6423;BME280;3244;42.708;23.288;2022-07-03T07:06:55;95442.50;;;30.33;47.81
6423;BME280;3244;42.708;23.288;2022-07-03T07:09:22;95434.63;;;30.73;47.93
6423;BME280;3244;42.708;23.288;2022-07-03T07:11:48;95427.88;;;30.95;47.08
6423;BME280;3244;42.708;23.288;2022-07-03T07:14:17;95436.72;;;30.21;47.74
6423;BME280;3244;42.708;23.288;2022-07-03T07:16:43;95431.50;;;30.29;48.18
6423;BME280;3244;42.708;23.288;2022-07-03T07:19:10;95426.91;;;30.72;46.85
6423;BME280;3244;42.708;23.288;2022-07-03T07:21:37;95423.50;;;30.63;47.55
6423;BME280;3244;42.708;23.288;2022-07-03T07:24:04;95420.03;;;30.38;48.93
6423;BME280;3244;42.708;23.288;2022-07-03T07:26:31;95421.81;;;30.46;48.66
6423;BME280;3244;42.708;23.288;2022-07-03T07:28:58;95420.84;;;30.55;47.42
6423;BME280;3244;42.708;23.288;2022-07-03T07:31:26;95429.03;;;30.85;47.56
6423;BME280;3244;42.708;23.288;2022-07-03T07:33:53;95423.97;;;30.83;47.16
6423;BME280;3244;42.708;23.288;2022-07-03T07:36:20;95420.19;;;30.77;47.13
6423;BME280;3244;42.708;23.288;2022-07-03T07:38:46;95421.66;;;30.88;46.86
6423;BME280;3244;42.708;23.288;2022-07-03T07:41:13;95423.59;;;30.94;46.65
6423;BME280;3244;42.708;23.288;2022-07-03T07:43:40;95429.81;;;31.01;45.30
6423;BME280;3244;42.708;23.288;2022-07-03T07:46:07;95422.19;;;30.67;46.71
6423;BME280;3244;42.708;23.288;2022-07-03T07:48:35;95422.66;;;30.46;45.98
6423;BME280;3244;42.708;23.288;2022-07-03T07:51:02;95420.19;;;30.04;47.01
6423;BME280;3244;42.708;23.288;2022-07-03T07:53:29;95419.31;;;29.96;48.27
6423;BME280;3244;42.708;23.288;2022-07-03T07:55:55;95414.44;;;30.25;47.44
6423;BME280;3244;42.708;23.288;2022-07-03T07:58:22;95414.28;;;30.51;46.96
6423;BME280;3244;42.708;23.288;2022-07-03T08:00:49;95415.47;;;30.40;47.58
6423;BME280;3244;42.708;23.288;2022-07-03T08:03:35;95416.13;;;30.42;46.66
6423;BME280;3244;42.708;23.288;2022-07-03T08:06:19;95414.00;;;29.63;48.31
6423;BME280;3244;42.708;23.288;2022-07-03T08:08:45;95417.44;;;29.64;48.04
6423;BME280;3244;42.708;23.288;2022-07-03T08:11:12;95407.19;;;29.95;46.90
6423;BME280;3244;42.708;23.288;2022-07-03T08:13:39;95401.88;;;29.62;48.43
6423;BME280;3244;42.708;23.288;2022-07-03T08:16:06;95405.09;;;30.06;48.08
6423;BME280;3244;42.708;23.288;2022-07-03T08:18:32;95404.88;;;29.84;47.26
6423;BME280;3244;42.708;23.288;2022-07-03T08:21:00;95400.31;;;29.35;48.25
6423;BME280;3244;42.708;23.288;2022-07-03T08:23:27;95402.91;;;29.77;46.83
6423;BME280;3244;42.708;23.288;2022-07-03T08:25:54;95403.28;;;29.91;46.65
6423;BME280;3244;42.708;23.288;2022-07-03T08:28:21;95397.09;;;30.24;47.01
6423;BME280;3244;42.708;23.288;2022-07-03T08:30:48;95404.94;;;30.00;47.29
6423;BME280;3244;42.708;23.288;2022-07-03T08:33:14;95403.31;;;30.23;46.76
6423;BME280;3244;42.708;23.288;2022-07-03T08:35:41;95393.19;;;30.61;46.82
6423;BME280;3244;42.708;23.288;2022-07-03T08:38:09;95408.22;;;30.83;45.51
6423;BME280;3244;42.708;23.288;2022-07-03T08:40:36;95409.69;;;30.86;45.66
6423;BME280;3244;42.708;23.288;2022-07-03T08:43:04;95411.69;;;30.35;47.10
6423;BME280;3244;42.708;23.288;2022-07-03T08:45:33;95395.44;;;30.31;46.37
6423;BME280;3244;42.708;23.288;2022-07-03T08:48:02;95397.75;;;30.42;45.94
6423;BME280;3244;42.708;23.288;2022-07-03T08:50:29;95397.72;;;30.02;47.05
6423;BME280;3244;42.708;23.288;2022-07-03T08:52:59;95389.56;;;30.13;47.04
6423;BME280;3244;42.708;23.288;2022-07-03T08:55:29;95392.47;;;30.51;46.94
6423;BME280;3244;42.708;23.288;2022-07-03T08:57:57;95383.47;;;30.53;45.44
6423;BME280;3244;42.708;23.288;2022-07-03T09:00:25;95389.69;;;30.20;44.82
6423;BME280;3244;42.708;23.288;2022-07-03T09:02:54;95389.22;;;30.24;44.77
6423;BME280;3244;42.708;23.288;2022-07-03T09:05:23;95393.34;;;30.43;45.45
6423;BME280;3244;42.708;23.288;2022-07-03T09:07:50;95390.53;;;30.69;45.99
6423;BME280;3244;42.708;23.288;2022-07-03T09:10:18;95382.97;;;30.90;45.14
6423;BME280;3244;42.708;23.288;2022-07-03T09:12:47;95388.72;;;30.77;43.79
6423;BME280;3244;42.708;23.288;2022-07-03T09:15:15;95378.03;;;30.79;44.44
6423;BME280;3244;42.708;23.288;2022-07-03T09:17:56;95375.75;;;30.76;44.89
6423;BME280;3244;42.708;23.288;2022-07-03T09:20:28;95374.56;;;30.95;42.80
6423;BME280;3244;42.708;23.288;2022-07-03T09:23:08;95364.94;;;30.55;40.66
6423;BME280;3244;42.708;23.288;2022-07-03T09:25:35;95380.72;;;30.30;42.26
6423;BME280;3244;42.708;23.288;2022-07-03T09:28:03;95371.84;;;30.48;41.32
6423;BME280;3244;42.708;23.288;2022-07-03T09:30:30;95381.66;;;30.54;43.03
6423;BME280;3244;42.708;23.288;2022-07-03T09:32:57;95382.03;;;30.18;40.96
6423;BME280;3244;42.708;23.288;2022-07-03T09:35:25;95382.09;;;29.76;42.80
6423;BME280;3244;42.708;23.288;2022-07-03T09:37:54;95369.69;;;29.94;43.66
6423;BME280;3244;42.708;23.288;2022-07-03T09:40:22;95366.13;;;30.11;43.31
6423;BME280;3244;42.708;23.288;2022-07-03T09:43:00;95371.19;;;30.54;41.75
6423;BME280;3244;42.708;23.288;2022-07-03T09:45:48;95368.75;;;30.11;40.96
6423;BME280;3244;42.708;23.288;2022-07-03T09:48:30;95368.75;;;30.36;41.34
6423;BME280;3244;42.708;23.288;2022-07-03T09:51:15;95378.53;;;29.93;42.03
6423;BME280;3244;42.708;23.288;2022-07-03T09:53:55;95373.09;;;29.78;43.18
6423;BME280;3244;42.708;23.288;2022-07-03T09:56:24;95360.88;;;30.11;43.19
6423;BME280;3244;42.708;23.288;2022-07-03T09:59:02;95355.44;;;30.54;42.74
6423;BME280;3244;42.708;23.288;2022-07-03T10:01:30;95369.06;;;30.00;41.89
6423;BME280;3244;42.708;23.288;2022-07-03T10:04:09;95368.19;;;29.84;44.42
6423;BME280;3244;42.708;23.288;2022-07-03T10:06:52;95362.34;;;30.22;43.12
6423;BME280;3244;42.708;23.288;2022-07-03T10:09:22;95356.72;;;30.74;42.84
6423;BME280;3244;42.708;23.288;2022-07-03T10:11:49;95345.50;;;31.04;41.09
6423;BME280;3244;42.708;23.288;2022-07-03T10:14:17;95347.47;;;31.02;41.15
6423;BME280;3244;42.708;23.288;2022-07-03T10:16:46;95339.41;;;30.40;42.75
6423;BME280;3244;42.708;23.288;2022-07-03T10:19:15;95344.97;;;30.21;42.87
6423;BME280;3244;42.708;23.288;2022-07-03T10:21:49;95341.22;;;30.16;43.48
6423;BME280;3244;42.708;23.288;2022-07-03T10:24:17;95337.75;;;29.91;44.44
6423;BME280;3244;42.708;23.288;2022-07-03T10:26:44;95336.16;;;30.06;43.72
6423;BME280;3244;42.708;23.288;2022-07-03T10:29:10;95327.22;;;30.80;43.19
6423;BME280;3244;42.708;23.288;2022-07-03T10:31:45;95328.81;;;30.89;42.22
6423;BME280;3244;42.708;23.288;2022-07-03T10:34:18;95327.28;;;30.56;42.69
6423;BME280;3244;42.708;23.288;2022-07-03T10:36:46;95320.53;;;30.61;41.86
6423;BME280;3244;42.708;23.288;2022-07-03T10:39:20;95322.84;;;30.56;40.97
6423;BME280;3244;42.708;23.288;2022-07-03T10:41:53;95318.47;;;30.16;40.73
6423;BME280;3244;42.708;23.288;2022-07-03T10:44:52;95314.47;;;30.44;38.16
6423;BME280;3244;42.708;23.288;2022-07-03T10:47:45;95317.28;;;30.59;37.91
6423;BME280;3244;42.708;23.288;2022-07-03T10:50:13;95307.22;;;30.71;37.60
6423;BME280;3244;42.708;23.288;2022-07-03T10:52:41;95307.63;;;30.35;36.96
6423;BME280;3244;42.708;23.288;2022-07-03T10:55:09;95307.00;;;30.17;38.12
6423;BME280;3244;42.708;23.288;2022-07-03T10:57:37;95306.97;;;29.93;38.09
6423;BME280;3244;42.708;23.288;2022-07-03T11:00:17;95307.28;;;30.30;37.52
6423;BME280;3244;42.708;23.288;2022-07-03T11:02:47;95299.41;;;30.38;36.81
6423;BME280;3244;42.708;23.288;2022-07-03T11:05:36;95300.41;;;30.29;36.01
6423;BME280;3244;42.708;23.288;2022-07-03T11:08:07;95288.06;;;30.54;36.13
6423;BME280;3244;42.708;23.288;2022-07-03T11:10:39;95295.31;;;30.20;34.99
6423;BME280;3244;42.708;23.288;2022-07-03T11:13:26;95292.56;;;30.13;34.40
6423;BME280;3244;42.708;23.288;2022-07-03T11:15:54;95286.69;;;30.11;35.14
6423;BME280;3244;42.708;23.288;2022-07-03T11:18:27;95287.28;;;30.37;35.43
6423;BME280;3244;42.708;23.288;2022-07-03T11:21:33;95279.78;;;29.94;35.89
6423;BME280;3244;42.708;23.288;2022-07-03T11:24:37;95280.44;;;29.79;36.31
6423;BME280;3244;42.708;23.288;2022-07-03T11:27:22;95284.38;;;29.92;35.68
6423;BME280;3244;42.708;23.288;2022-07-03T11:29:59;95263.38;;;30.24;36.31
6423;BME280;3244;42.708;23.288;2022-07-03T11:32:52;95268.22;;;30.52;36.55
6423;BME280;3244;42.708;23.288;2022-07-03T11:38:28;95266.44;;;30.99;36.71
6423;BME280;3244;42.708;23.288;2022-07-03T11:40:59;95264.16;;;30.96;36.42
6423;BME280;3244;42.708;23.288;2022-07-03T11:43:27;95258.22;;;31.02;36.97
6423;BME280;3244;42.708;23.288;2022-07-03T11:45:54;95258.97;;;30.88;36.87
6423;BME280;3244;42.708;23.288;2022-07-03T11:48:22;95258.53;;;31.07;36.20
6423;BME280;3244;42.708;23.288;2022-07-03T11:50:49;95245.19;;;30.86;36.75
6423;BME280;3244;42.708;23.288;2022-07-03T11:53:21;95251.00;;;31.13;36.19
6423;BME280;3244;42.708;23.288;2022-07-03T11:55:54;95249.03;;;30.98;36.80
6423;BME280;3244;42.708;23.288;2022-07-03T11:58:22;95249.81;;;30.76;35.86
6423;BME280;3244;42.708;23.288;2022-07-03T12:00:49;95253.41;;;30.75;35.38
6423;BME280;3244;42.708;23.288;2022-07-03T12:03:23;95241.00;;;30.53;36.29
6423;BME280;3244;42.708;23.288;2022-07-03T12:05:52;95238.31;;;30.85;36.79
6423;BME280;3244;42.708;23.288;2022-07-03T12:08:27;95246.00;;;30.87;36.76
6423;BME280;3244;42.708;23.288;2022-07-03T12:11:00;95239.34;;;31.07;36.99
6423;BME280;3244;42.708;23.288;2022-07-03T12:13:28;95241.22;;;30.90;36.97
6423;BME280;3244;42.708;23.288;2022-07-03T12:16:01;95231.69;;;30.58;37.35
6423;BME280;3244;42.708;23.288;2022-07-03T12:18:44;95239.94;;;30.86;37.30
6423;BME280;3244;42.708;23.288;2022-07-03T12:21:12;95226.72;;;31.02;37.01
6423;BME280;3244;42.708;23.288;2022-07-03T12:23:47;95224.84;;;31.19;36.95
6423;BME280;3244;42.708;23.288;2022-07-03T12:26:26;95226.66;;;31.19;35.99
6423;BME280;3244;42.708;23.288;2022-07-03T12:28:54;95226.19;;;30.76;36.66
6423;BME280;3244;42.708;23.288;2022-07-03T12:31:22;95223.56;;;30.76;37.93
6423;BME280;3244;42.708;23.288;2022-07-03T12:33:49;95223.00;;;30.50;36.67
6423;BME280;3244;42.708;23.288;2022-07-03T12:36:17;95219.38;;;30.51;37.25
6423;BME280;3244;42.708;23.288;2022-07-03T12:38:47;95224.63;;;30.67;37.95
6423;BME280;3244;42.708;23.288;2022-07-03T12:41:16;95223.09;;;30.17;38.51
6423;BME280;3244;42.708;23.288;2022-07-03T12:43:46;95230.09;;;30.33;39.79
6423;BME280;3244;42.708;23.288;2022-07-03T12:46:17;95225.69;;;30.25;38.58
6423;BME280;3244;42.708;23.288;2022-07-03T12:48:45;95220.75;;;30.30;38.24
6423;BME280;3244;42.708;23.288;2022-07-03T12:51:12;95223.72;;;30.27;39.37
6423;BME280;3244;42.708;23.288;2022-07-03T12:53:39;95226.00;;;30.38;39.67
6423;BME280;3244;42.708;23.288;2022-07-03T12:56:07;95206.53;;;30.72;38.55
6423;BME280;3244;42.708;23.288;2022-07-03T12:58:38;95225.69;;;30.25;38.62
6423;BME280;3244;42.708;23.288;2022-07-03T13:01:24;95228.34;;;29.85;39.65
6423;BME280;3244;42.708;23.288;2022-07-03T13:03:51;95224.78;;;29.69;39.58
6423;BME280;3244;42.708;23.288;2022-07-03T13:06:20;95219.03;;;29.82;40.29
6423;BME280;3244;42.708;23.288;2022-07-03T13:08:51;95211.94;;;30.23;39.68
6423;BME280;3244;42.708;23.288;2022-07-03T13:11:26;95214.69;;;30.38;38.63
6423;BME280;3244;42.708;23.288;2022-07-03T13:14:02;95207.63;;;30.38;39.84
6423;BME280;3244;42.708;23.288;2022-07-03T13:16:29;95205.50;;;30.42;39.23
6423;BME280;3244;42.708;23.288;2022-07-03T13:18:59;95211.28;;;29.97;38.76
6423;BME280;3244;42.708;23.288;2022-07-03T13:21:26;95203.59;;;29.95;39.34
6423;BME280;3244;42.708;23.288;2022-07-03T13:23:53;95205.75;;;30.00;39.56
6423;BME280;3244;42.708;23.288;2022-07-03T13:26:20;95219.84;;;29.74;41.99
6423;BME280;3244;42.708;23.288;2022-07-03T13:28:47;95198.56;;;29.45;43.38
6423;BME280;3244;42.708;23.288;2022-07-03T13:31:15;95216.84;;;29.29;44.69
6423;BME280;3244;42.708;23.288;2022-07-03T13:33:42;95204.53;;;28.97;46.83